createdAt,value
2022-11-29T00:02:01.919Z,99022.66
2022-11-29T00:04:29.710Z,99021.66
2022-11-29T00:06:57.072Z,99013.66
2022-11-29T00:09:24.589Z,99011.81
2022-11-29T00:12:10.557Z,99012.16
2022-11-29T00:14:37.839Z,99011.81
2022-11-29T00:17:05.970Z,99009.69
2022-11-29T00:19:34.779Z,99010.16
2022-11-29T00:22:02.997Z,99010.97
2022-11-29T00:24:32.380Z,99004.06
2022-11-29T00:27:00.095Z,99002.84
2022-11-29T00:32:12.620Z,99006.16
2022-11-29T00:34:39.952Z,99001.94
2022-11-29T00:37:07.260Z,99006.03
2022-11-29T00:39:34.566Z,99012.13
2022-11-29T00:42:01.886Z,99004.97
2022-11-29T00:44:29.278Z,99005.06
2022-11-29T00:46:56.632Z,99002.13
2022-11-29T00:49:25.556Z,99010.56
2022-11-29T00:51:53.245Z,99006.03
2022-11-29T00:54:21.584Z,99011.19
2022-11-29T00:56:49.153Z,99007.78
2022-11-29T00:59:16.576Z,99005.69
2022-11-29T01:01:47.821Z,99002.84
2022-11-29T01:04:15.236Z,99000.16
2022-11-29T01:06:42.844Z,98998.53
2022-11-29T01:09:10.221Z,99001.13
2022-11-29T01:11:37.782Z,98993.72
2022-11-29T01:14:05.128Z,99000.75
2022-11-29T01:16:32.875Z,98991.38
2022-11-29T01:19:00.611Z,98993.63
2022-11-29T01:21:28.141Z,98995.25
2022-11-29T01:23:55.560Z,98986.38
2022-11-29T01:26:26.380Z,98987.66
2022-11-29T01:28:55.585Z,98986.94
2022-11-29T01:31:26.173Z,98978.78
2022-11-29T01:33:55.453Z,98980.97
2022-11-29T01:36:23.809Z,98969.75
2022-11-29T01:38:51.548Z,98966.78
2022-11-29T01:41:23.382Z,98968.53
2022-11-29T01:44:05.492Z,98967.03
2022-11-29T01:46:38.553Z,98968.63
2022-11-29T01:49:12.077Z,98963.00
2022-11-29T01:51:50.378Z,98957.72
2022-11-29T01:54:18.419Z,98959.81
2022-11-29T01:56:48.782Z,98956.66
2022-11-29T01:59:19.232Z,98965.31
2022-11-29T02:01:46.585Z,98965.66
2022-11-29T02:04:14.468Z,98960.84
2022-11-29T02:06:43.564Z,98972.53
2022-11-29T02:09:22.069Z,98967.25
2022-11-29T02:11:59.067Z,98966.19
2022-11-29T02:14:50.154Z,98957.09
2022-11-29T02:17:40.983Z,98950.50
2022-11-29T02:20:35.496Z,98959.16
2022-11-29T02:23:23.601Z,98954.22
2022-11-29T02:25:59.710Z,98949.09
2022-11-29T02:28:53.071Z,98945.56
2022-11-29T02:31:41.908Z,98940.66
2022-11-29T02:34:18.704Z,98931.78
2022-11-29T02:36:56.316Z,98941.84
2022-11-29T02:39:38.846Z,98936.81
2022-11-29T02:42:54.075Z,98934.34
2022-11-29T02:45:55.415Z,98937.03
2022-11-29T02:48:28.697Z,98941.16
2022-11-29T02:51:08.901Z,98942.75
2022-11-29T02:54:02.365Z,98942.75
2022-11-29T02:56:56.747Z,98952.22
2022-11-29T03:00:08.006Z,98954.31
2022-11-29T03:03:08.537Z,98946.59
2022-11-29T03:05:51.427Z,98947.63
2022-11-29T03:08:47.994Z,98943.78
2022-11-29T03:11:53.098Z,98945.78
2022-11-29T03:14:33.493Z,98944.72
2022-11-29T03:17:30.547Z,98948.56
2022-11-29T03:20:26.191Z,98953.59
2022-11-29T03:22:59.170Z,98961.53
2022-11-29T03:25:33.158Z,98960.94
2022-11-29T03:28:18.773Z,98959.09
2022-11-29T03:30:56.687Z,98965.63
2022-11-29T03:33:38.167Z,98953.00
2022-11-29T03:36:23.077Z,98954.53
2022-11-29T03:38:55.393Z,98956.56
2022-11-29T03:41:35.300Z,98956.44
2022-11-29T03:44:08.579Z,98960.31
2022-11-29T03:46:47.901Z,98962.69
2022-11-29T03:49:32.182Z,98956.50
2022-11-29T03:52:17.779Z,98967.75
2022-11-29T03:55:10.393Z,98967.94
2022-11-29T03:58:07.550Z,98975.63
2022-11-29T04:01:07.174Z,98967.44
2022-11-29T04:03:46.621Z,98974.44
2022-11-29T04:06:39.578Z,98977.69
2022-11-29T04:09:35.749Z,98985.31
2022-11-29T04:12:30.229Z,98982.75
2022-11-29T04:15:17.428Z,98983.81
2022-11-29T04:18:15.841Z,98990.72
2022-11-29T04:21:09.329Z,98983.56
2022-11-29T04:23:56.022Z,98998.59
2022-11-29T04:26:56.763Z,98989.06
2022-11-29T04:29:43.296Z,98984.63
2022-11-29T04:32:29.259Z,98988.84
2022-11-29T04:35:19.541Z,98993.78
2022-11-29T04:38:02.200Z,98997.16
2022-11-29T04:40:52.483Z,98993.41
2022-11-29T04:43:26.393Z,99004.72
2022-11-29T04:46:11.646Z,98999.31
2022-11-29T04:48:55.479Z,99001.91
2022-11-29T04:51:25.456Z,99003.28
2022-11-29T04:54:08.393Z,99003.91
2022-11-29T04:56:51.773Z,99013.47
2022-11-29T04:59:47.629Z,99006.81
2022-11-29T05:02:33.750Z,99011.94
2022-11-29T05:05:41.577Z,99017.09
2022-11-29T05:08:14.944Z,99018.34
2022-11-29T05:11:05.897Z,99018.66
2022-11-29T05:14:04.454Z,99024.03
2022-11-29T05:16:47.240Z,99027.94
2022-11-29T05:19:25.132Z,99035.53
2022-11-29T05:22:07.833Z,99028.50
2022-11-29T05:24:44.415Z,99030.56
2022-11-29T05:27:54.188Z,99039.38
2022-11-29T05:30:23.700Z,99039.44
2022-11-29T05:32:57.972Z,99036.59
2022-11-29T05:35:54.881Z,99033.13
2022-11-29T05:38:43.834Z,99037.50
2022-11-29T05:41:16.798Z,99033.56
2022-11-29T05:44:02.928Z,99030.88
2022-11-29T05:46:53.553Z,99044.81
2022-11-29T05:49:43.475Z,99033.59
2022-11-29T05:52:35.658Z,99038.63
2022-11-29T05:55:15.305Z,99035.22
2022-11-29T05:58:11.769Z,99040.03
2022-11-29T06:00:54.822Z,99040.03
2022-11-29T06:03:39.387Z,99038.13
2022-11-29T06:06:19.344Z,99041.38
2022-11-29T06:09:05.437Z,99032.88
2022-11-29T06:11:39.535Z,99039.81
2022-11-29T06:14:38.329Z,99035.97
2022-11-29T06:17:14.416Z,99045.13
2022-11-29T06:20:11.012Z,99045.50
2022-11-29T06:22:59.552Z,99048.56
2022-11-29T06:25:47.340Z,99055.78
2022-11-29T06:28:38.640Z,99063.50
2022-11-29T06:31:22.796Z,99059.78
2022-11-29T06:34:09.291Z,99067.28
2022-11-29T06:36:46.337Z,99057.06
2022-11-29T06:39:14.427Z,99069.84
2022-11-29T06:41:41.781Z,99065.66
2022-11-29T06:44:10.462Z,99068.59
2022-11-29T06:47:00.133Z,99064.97
2022-11-29T06:49:29.132Z,99070.63
2022-11-29T06:52:08.686Z,99069.22
2022-11-29T06:55:04.394Z,99070.41
2022-11-29T06:57:44.139Z,99074.66
2022-11-29T07:00:22.242Z,99077.66
2022-11-29T07:03:06.546Z,99083.28
2022-11-29T07:05:35.956Z,99075.81
2022-11-29T07:08:13.821Z,99068.53
2022-11-29T07:10:42.935Z,99067.34
2022-11-29T07:13:13.837Z,99067.44
2022-11-29T07:16:06.235Z,99070.97
2022-11-29T07:18:33.614Z,99068.41
2022-11-29T07:21:34.503Z,99069.47
2022-11-29T07:24:21.304Z,99076.75
2022-11-29T07:26:59.700Z,99067.63
2022-11-29T07:29:40.036Z,99072.50
2022-11-29T07:32:25.329Z,99070.47
2022-11-29T07:35:15.222Z,99067.91
2022-11-29T07:38:03.487Z,99061.00
2022-11-29T07:40:48.198Z,99069.31
2022-11-29T07:43:34.013Z,99061.41
2022-11-29T07:46:01.653Z,99067.31
2022-11-29T07:48:28.967Z,99063.06
2022-11-29T07:50:56.910Z,99054.97
2022-11-29T07:53:24.614Z,99057.16
2022-11-29T07:55:52.026Z,99057.41
2022-11-29T07:58:19.599Z,99057.75
2022-11-29T08:00:47.042Z,99063.09
2022-11-29T08:03:14.692Z,99051.63
2022-11-29T08:05:46.472Z,99055.41
2022-11-29T08:08:14.119Z,99052.50
2022-11-29T08:10:41.520Z,99054.56
2022-11-29T08:13:08.870Z,99046.16
2022-11-29T08:15:36.417Z,99046.00
2022-11-29T08:18:04.501Z,99049.16
2022-11-29T08:20:31.785Z,99049.63
2022-11-29T08:23:00.051Z,99049.56
2022-11-29T08:25:28.193Z,99050.88
2022-11-29T08:27:56.136Z,99047.91
2022-11-29T08:30:24.193Z,99050.38
2022-11-29T08:32:52.600Z,99041.84
2022-11-29T08:35:22.112Z,99044.16
2022-11-29T08:37:51.666Z,99052.88
2022-11-29T08:40:19.154Z,99059.53
2022-11-29T08:42:46.449Z,99052.75
2022-11-29T08:45:14.049Z,99049.84
2022-11-29T08:47:42.465Z,99046.44
2022-11-29T08:50:15.557Z,99057.31
2022-11-29T08:53:04.652Z,99054.28
2022-11-29T08:55:37.719Z,99049.78
2022-11-29T08:58:07.269Z,99056.22
2022-11-29T09:00:35.156Z,99049.94
2022-11-29T09:03:22.921Z,99054.44
2022-11-29T09:05:50.448Z,99056.63
2022-11-29T09:08:18.203Z,99049.34
2022-11-29T09:10:46.222Z,99044.91
2022-11-29T09:13:13.733Z,99050.84
2022-11-29T09:15:43.493Z,99051.91
2022-11-29T09:18:11.468Z,99046.78
2022-11-29T09:20:41.823Z,99047.59
2022-11-29T09:23:09.337Z,99044.09
2022-11-29T09:25:36.881Z,99046.75
2022-11-29T09:28:04.289Z,99042.53
2022-11-29T09:30:31.979Z,99037.88
2022-11-29T09:33:02.679Z,99042.13
2022-11-29T09:35:30.232Z,99038.09
2022-11-29T09:37:57.522Z,99037.63
2022-11-29T09:40:37.603Z,99035.19
2022-11-29T09:43:22.982Z,99037.00
2022-11-29T09:45:57.447Z,99038.78
2022-11-29T09:48:37.085Z,99031.19
2022-11-29T09:51:19.420Z,99021.06
2022-11-29T09:54:05.766Z,99017.28
2022-11-29T09:56:40.835Z,99025.66
2022-11-29T09:59:13.843Z,99015.75
2022-11-29T10:01:47.572Z,99013.56
2022-11-29T10:04:24.915Z,99006.22
2022-11-29T10:07:17.740Z,98992.97
2022-11-29T10:09:50.586Z,98995.16
2022-11-29T10:12:23.815Z,98986.56
2022-11-29T10:14:57.317Z,98990.25
2022-11-29T10:17:28.633Z,98977.19
2022-11-29T10:20:22.391Z,98983.16
2022-11-29T10:23:05.150Z,98983.16
2022-11-29T10:25:46.719Z,98979.47
2022-11-29T10:28:17.397Z,98969.94
2022-11-29T10:30:46.464Z,98968.16
2022-11-29T10:33:21.401Z,98963.66
2022-11-29T10:35:55.614Z,98956.13
2022-11-29T10:38:32.055Z,98967.31
2022-11-29T10:41:15.959Z,98961.56
2022-11-29T10:43:43.409Z,98955.72
2022-11-29T10:46:23.339Z,98959.66
2022-11-29T10:48:50.718Z,98957.75
2022-11-29T10:51:18.350Z,98962.53
2022-11-29T10:53:46.712Z,98952.06
2022-11-29T10:56:24.217Z,98952.47
2022-11-29T10:59:05.327Z,98957.66
2022-11-29T11:01:36.992Z,98959.84
2022-11-29T11:04:07.551Z,98967.09
2022-11-29T11:06:48.324Z,98957.25
2022-11-29T11:09:21.256Z,98956.44
2022-11-29T11:11:53.140Z,98948.66
2022-11-29T11:14:23.538Z,98946.31
2022-11-29T11:16:51.378Z,98951.81
2022-11-29T11:19:29.375Z,98953.28
2022-11-29T11:22:06.146Z,98951.25
2022-11-29T11:24:36.579Z,98948.25
2022-11-29T11:27:04.359Z,98944.44
2022-11-29T11:29:40.672Z,98948.00
2022-11-29T11:32:16.673Z,98947.44
2022-11-29T11:34:55.520Z,98951.81
2022-11-29T11:37:33.363Z,98951.50
2022-11-29T11:40:29.472Z,98949.59
2022-11-29T11:42:59.521Z,98948.03
2022-11-29T11:45:37.131Z,98948.59
2022-11-29T11:48:13.639Z,98964.16
2022-11-29T11:50:57.184Z,98961.31
2022-11-29T11:53:37.411Z,98953.69
2022-11-29T11:56:07.251Z,98958.88
2022-11-29T11:58:51.940Z,98951.78
2022-11-29T12:01:38.616Z,98950.41
2022-11-29T12:04:17.961Z,98946.06
2022-11-29T12:06:52.543Z,98948.09
2022-11-29T12:09:38.235Z,98941.84
2022-11-29T12:12:11.287Z,98942.50
2022-11-29T12:15:01.466Z,98949.16
2022-11-29T12:17:34.416Z,98947.66
2022-11-29T12:20:30.460Z,98945.66
2022-11-29T12:23:06.567Z,98946.56
2022-11-29T12:25:40.894Z,98946.28
2022-11-29T12:28:19.858Z,98948.50
2022-11-29T12:30:51.023Z,98943.03
2022-11-29T12:33:42.186Z,98944.00
2022-11-29T12:36:13.146Z,98946.06
2022-11-29T12:38:40.443Z,98949.63
2022-11-29T12:41:20.456Z,98952.72
2022-11-29T12:43:53.582Z,98938.44
2022-11-29T12:46:26.356Z,98940.63
2022-11-29T12:49:24.601Z,98948.66
2022-11-29T12:52:38.581Z,98951.78
2022-11-29T12:55:43.778Z,98946.63
2022-11-29T12:58:34.925Z,98945.66
2022-11-29T13:01:23.413Z,98942.78
2022-11-29T13:04:17.218Z,98939.91
2022-11-29T13:06:53.759Z,98941.44
2022-11-29T13:09:58.195Z,98952.06
2022-11-29T13:12:46.259Z,98955.06
2022-11-29T13:15:33.043Z,98957.38
2022-11-29T13:18:23.000Z,98964.31
2022-11-29T13:21:07.853Z,98963.91
2022-11-29T13:24:07.451Z,98959.84
2022-11-29T13:26:29.971Z,98970.47
2022-11-29T13:28:58.265Z,98970.75
2022-11-29T13:31:26.263Z,98971.03
2022-11-29T13:34:07.648Z,98980.69
2022-11-29T13:37:09.027Z,98975.09
2022-11-29T13:39:54.855Z,98978.50
2022-11-29T13:42:29.744Z,98968.13
2022-11-29T13:45:21.451Z,98975.50
2022-11-29T13:47:51.605Z,98966.81
2022-11-29T13:50:39.043Z,98980.53
2022-11-29T13:53:20.367Z,98969.25
2022-11-29T13:55:59.911Z,98974.28
2022-11-29T13:58:39.841Z,98965.69
2022-11-29T14:01:13.145Z,98968.44
2022-11-29T14:03:51.745Z,98958.47
2022-11-29T14:06:33.154Z,98950.69
2022-11-29T14:09:38.436Z,98946.22
2022-11-29T14:12:31.235Z,98957.09
2022-11-29T14:15:03.083Z,98965.16
2022-11-29T14:17:59.675Z,98964.22
2022-11-29T14:20:28.402Z,98965.84
2022-11-29T14:23:04.917Z,98964.88
2022-11-29T14:25:51.092Z,98962.16
2022-11-29T14:28:22.363Z,98969.38
2022-11-29T14:30:52.195Z,98969.81
2022-11-29T14:33:38.108Z,98973.34
2022-11-29T14:36:14.468Z,98974.16
2022-11-29T14:39:10.425Z,98972.53
2022-11-29T14:42:01.334Z,98965.97
2022-11-29T14:44:30.956Z,98971.44
2022-11-29T14:47:04.347Z,98983.56
2022-11-29T14:49:39.957Z,98977.56
2022-11-29T14:52:13.306Z,98991.63
2022-11-29T14:55:16.886Z,98977.84
2022-11-29T14:57:49.054Z,98983.56
2022-11-29T15:00:19.354Z,98971.56
2022-11-29T15:02:55.512Z,98979.34
2022-11-29T15:05:28.175Z,98975.25
2022-11-29T15:08:26.797Z,98982.06
2022-11-29T15:11:12.421Z,98978.78
2022-11-29T15:13:54.261Z,98979.50
2022-11-29T15:16:26.405Z,98983.28
2022-11-29T15:19:13.305Z,98984.94
2022-11-29T15:21:58.462Z,98974.56
2022-11-29T15:24:28.682Z,98984.50
2022-11-29T15:27:01.805Z,98980.28
2022-11-29T15:29:30.990Z,98982.75
2022-11-29T15:32:01.693Z,98980.69
2022-11-29T15:34:36.963Z,98983.69
2022-11-29T15:37:04.746Z,98982.22
2022-11-29T15:39:37.707Z,98978.00
2022-11-29T15:42:12.152Z,98978.81
2022-11-29T15:44:47.224Z,98974.59
2022-11-29T15:47:32.664Z,98972.00
2022-11-29T15:50:00.029Z,98967.22
2022-11-29T15:52:34.223Z,98976.63
2022-11-29T15:55:05.487Z,98980.56
2022-11-29T15:57:38.814Z,98971.97
2022-11-29T16:00:15.413Z,98985.91
2022-11-29T16:02:53.476Z,98987.78
2022-11-29T16:05:26.920Z,98992.69
2022-11-29T16:07:59.146Z,98985.91
2022-11-29T16:10:36.849Z,98981.78
2022-11-29T16:13:07.208Z,98980.00
2022-11-29T16:15:37.276Z,98980.66
2022-11-29T16:18:22.171Z,98994.56
2022-11-29T16:21:00.992Z,98982.16
2022-11-29T16:23:36.800Z,98982.28
2022-11-29T16:26:18.948Z,98985.03
2022-11-29T16:28:49.695Z,98977.13
2022-11-29T16:31:19.069Z,98978.75
2022-11-29T16:33:49.252Z,98985.69
2022-11-29T16:36:25.221Z,98985.44
2022-11-29T16:39:14.500Z,98987.22
2022-11-29T16:41:41.869Z,98991.59
2022-11-29T16:44:42.781Z,98987.22
2022-11-29T16:47:27.636Z,98995.09
2022-11-29T16:50:13.494Z,98993.47
2022-11-29T16:52:40.876Z,98998.22
2022-11-29T16:55:08.608Z,98998.78
2022-11-29T16:57:36.722Z,98999.03
2022-11-29T17:00:33.383Z,99003.53
2022-11-29T17:03:00.783Z,99000.13
2022-11-29T17:05:28.340Z,99001.31
2022-11-29T17:07:55.823Z,98991.78
2022-11-29T17:10:26.016Z,98998.34
2022-11-29T17:12:53.500Z,98990.03
2022-11-29T17:15:20.879Z,99009.09
2022-11-29T17:17:48.294Z,99007.88
2022-11-29T17:20:15.782Z,99012.63
2022-11-29T17:22:43.077Z,99016.72
2022-11-29T17:25:10.955Z,99018.34
2022-11-29T17:27:38.314Z,99009.47
2022-11-29T17:30:06.999Z,99008.53
2022-11-29T17:32:38.391Z,99009.75
2022-11-29T17:35:06.088Z,99010.16
2022-11-29T17:37:37.160Z,99012.22
2022-11-29T17:40:05.231Z,99013.59
2022-11-29T17:42:32.520Z,99010.06
2022-11-29T17:44:59.841Z,99011.13
2022-11-29T17:47:27.182Z,99011.69
2022-11-29T17:49:54.767Z,99017.09
2022-11-29T17:52:23.113Z,99018.50
2022-11-29T17:54:50.548Z,99025.53
2022-11-29T17:57:18.365Z,99027.63
2022-11-29T17:59:47.354Z,99027.75
2022-11-29T18:02:15.098Z,99020.78
2022-11-29T18:04:43.979Z,99021.06
2022-11-29T18:07:13.292Z,99025.97
2022-11-29T18:09:45.197Z,99024.09
2022-11-29T18:12:12.818Z,99024.63
2022-11-29T18:14:41.352Z,99020.41
2022-11-29T18:17:09.407Z,99022.31
2022-11-29T18:19:36.805Z,99020.50
2022-11-29T18:22:05.231Z,99022.13
2022-11-29T18:24:34.068Z,99024.00
2022-11-29T18:27:02.166Z,99027.47
2022-11-29T18:29:32.771Z,99023.06
2022-11-29T18:32:05.153Z,99031.25
2022-11-29T18:34:32.469Z,99034.38
2022-11-29T18:36:59.825Z,99036.41
2022-11-29T18:39:27.266Z,99034.75
2022-11-29T18:41:55.292Z,99039.38
2022-11-29T18:44:30.044Z,99030.91
2022-11-29T18:46:59.374Z,99031.34
2022-11-29T18:49:27.982Z,99037.84
2022-11-29T18:51:55.308Z,99045.72
2022-11-29T18:54:23.381Z,99038.38
2022-11-29T18:56:51.451Z,99049.44
2022-11-29T18:59:19.532Z,99051.59
2022-11-29T19:01:48.049Z,99041.94
2022-11-29T19:04:19.207Z,99040.03
2022-11-29T19:06:47.967Z,99046.84
2022-11-29T19:09:18.461Z,99043.47
2022-11-29T19:11:45.819Z,99041.28
2022-11-29T19:14:15.179Z,99043.75
2022-11-29T19:16:46.214Z,99048.44
2022-11-29T19:19:18.933Z,99048.56
2022-11-29T19:21:46.557Z,99049.09
2022-11-29T19:24:15.741Z,99054.44
2022-11-29T19:26:46.582Z,99047.78
2022-11-29T19:29:14.627Z,99059.09
2022-11-29T19:31:42.802Z,99055.38
2022-11-29T19:34:10.632Z,99060.81
2022-11-29T19:36:43.697Z,99059.97
2022-11-29T19:39:14.269Z,99053.19
2022-11-29T19:41:44.180Z,99049.63
2022-11-29T19:44:11.814Z,99049.25
2022-11-29T19:46:42.472Z,99047.78
2022-11-29T19:49:10.956Z,99046.72
2022-11-29T19:51:38.573Z,99042.34
2022-11-29T19:54:08.296Z,99044.28
2022-11-29T19:56:35.859Z,99042.94
2022-11-29T19:59:03.502Z,99041.31
2022-11-29T20:01:40.079Z,99045.38
2022-11-29T20:04:08.613Z,99036.94
2022-11-29T20:06:36.690Z,99035.88
2022-11-29T20:09:08.002Z,99037.25
2022-11-29T20:11:38.177Z,99036.94
2022-11-29T20:14:08.013Z,99036.94
2022-11-29T20:16:38.220Z,99040.78
2022-11-29T20:19:12.044Z,99035.25
2022-11-29T20:21:48.763Z,99029.56
2022-11-29T20:24:17.508Z,99031.44
2022-11-29T20:26:46.836Z,99031.75
2022-11-29T20:29:15.130Z,99038.53
2022-11-29T20:31:49.493Z,99033.16
2022-11-29T20:34:19.728Z,99025.53
2022-11-29T20:36:49.914Z,99029.38
2022-11-29T20:39:45.846Z,99030.03
2022-11-29T20:42:25.249Z,99032.03
2022-11-29T20:44:55.444Z,99031.31
2022-11-29T20:47:25.289Z,99033.59
2022-11-29T20:49:54.230Z,99025.63
2022-11-29T20:52:43.241Z,99028.16
2022-11-29T20:55:10.636Z,99023.13
2022-11-29T20:57:41.114Z,99027.34
2022-11-29T21:00:12.811Z,99030.50
2022-11-29T21:02:41.099Z,99022.31
2022-11-29T21:05:16.415Z,99027.69
2022-11-29T21:07:46.035Z,99031.72
2022-11-29T21:10:16.433Z,99024.16
2022-11-29T21:12:45.901Z,99023.03
2022-11-29T21:15:15.089Z,99029.38
2022-11-29T21:17:43.375Z,99027.03
2022-11-29T21:20:22.373Z,99022.44
2022-11-29T21:23:01.280Z,99024.44
2022-11-29T21:25:43.735Z,99024.72
2022-11-29T21:28:13.953Z,99024.72
2022-11-29T21:30:42.499Z,99015.34
2022-11-29T21:33:13.901Z,99020.06
2022-11-29T21:35:43.160Z,99019.41
2022-11-29T21:38:14.795Z,99016.22
2022-11-29T21:40:42.166Z,99017.97
2022-11-29T21:43:11.353Z,99019.63
2022-11-29T21:45:38.651Z,99017.34
2022-11-29T21:48:26.043Z,99021.47
2022-11-29T21:50:53.362Z,99022.50
2022-11-29T21:53:20.858Z,99019.78
2022-11-29T21:55:48.173Z,99022.50
2022-11-29T21:58:15.526Z,99029.75
2022-11-29T22:00:43.436Z,99030.56
2022-11-29T22:03:10.802Z,99023.84
2022-11-29T22:05:39.584Z,99011.59
2022-11-29T22:08:07.176Z,99018.44
2022-11-29T22:10:34.557Z,99016.66
2022-11-29T22:13:02.136Z,99013.25
2022-11-29T22:15:29.673Z,99014.31
2022-11-29T22:17:57.041Z,99019.84
2022-11-29T22:20:24.315Z,99017.78
2022-11-29T22:22:57.111Z,99020.28
2022-11-29T22:25:26.095Z,99007.81
2022-11-29T22:27:53.378Z,99006.03
2022-11-29T22:30:20.905Z,99013.97
2022-11-29T22:32:48.251Z,99015.50
2022-11-29T22:35:15.704Z,99011.41
2022-11-29T22:37:43.197Z,99019.97
2022-11-29T22:40:10.755Z,99015.50
2022-11-29T22:42:38.206Z,99015.13
2022-11-29T22:45:06.193Z,99017.00
2022-11-29T22:47:35.752Z,99018.28
2022-11-29T22:50:03.230Z,99021.44
2022-11-29T22:52:30.499Z,99014.38
2022-11-29T22:55:02.907Z,99016.50
2022-11-29T22:57:32.025Z,99021.69
2022-11-29T22:59:59.272Z,99012.78
2022-11-29T23:02:28.156Z,99006.59
2022-11-29T23:04:55.473Z,99005.91
2022-11-29T23:07:23.083Z,99018.16
2022-11-29T23:09:50.428Z,99018.38
2022-11-29T23:12:17.866Z,99019.19
2022-11-29T23:14:45.517Z,99019.28
2022-11-29T23:17:13.103Z,99019.41
2022-11-29T23:19:40.481Z,99018.69
2022-11-29T23:22:07.803Z,99020.47
2022-11-29T23:24:35.137Z,99018.25
2022-11-29T23:27:03.386Z,99012.03
2022-11-29T23:29:30.681Z,99012.47
2022-11-29T23:31:58.949Z,99018.91
2022-11-29T23:34:29.292Z,99017.50
2022-11-29T23:36:56.702Z,99008.25
2022-11-29T23:39:24.089Z,99007.03
2022-11-29T23:41:53.114Z,99002.59
2022-11-29T23:44:20.530Z,98997.66
2022-11-29T23:46:50.210Z,98999.28
2022-11-29T23:49:21.077Z,99005.28
2022-11-29T23:51:49.488Z,98995.09
2022-11-29T23:54:16.796Z,98993.63
2022-11-29T23:56:44.133Z,98994.34
2022-11-29T23:59:12.091Z,98998.78
